sensor_id;sensor_type;location;lat;lon;timestamp;pressure;altitude;pressure_sealevel;temperature;humidity
63715;BME280;49858;48.956;9.076;2022-11-20T00:00:52;98288.63;;;6.78;100.00
63715;BME280;49858;48.956;9.076;2022-11-20T00:03:21;98281.97;;;5.13;100.00
63715;BME280;49858;48.956;9.076;2022-11-20T00:05:49;98291.09;;;5.80;100.00
63715;BME280;49858;48.956;9.076;2022-11-20T00:08:17;98291.53;;;6.36;100.00
63715;BME280;49858;48.956;9.076;2022-11-20T00:10:44;98288.59;;;6.53;100.00
63715;BME280;49858;48.956;9.076;2022-11-20T00:13:12;98284.19;;;6.15;100.00
63715;BME280;49858;48.956;9.076;2022-11-20T00:15:40;98281.97;;;6.42;100.00
63715;BME280;49858;48.956;9.076;2022-11-20T00:18:08;98285.75;;;6.50;100.00
63715;BME280;49858;48.956;9.076;2022-11-20T00:20:37;98282.47;;;6.81;100.00
63715;BME280;49858;48.956;9.076;2022-11-20T00:23:04;98280.88;;;6.55;100.00
63715;BME280;49858;48.956;9.076;2022-11-20T00:25:33;98284.75;;;6.66;100.00
63715;BME280;49858;48.956;9.076;2022-11-20T00:28:01;98291.34;;;6.65;100.00
63715;BME280;49858;48.956;9.076;2022-11-20T00:30:29;98284.97;;;6.86;100.00
63715;BME280;49858;48.956;9.076;2022-11-20T00:32:56;98280.78;;;6.88;100.00
63715;BME280;49858;48.956;9.076;2022-11-20T00:35:24;98275.06;;;6.45;100.00
63715;BME280;49858;48.956;9.076;2022-11-20T00:37:53;98287.59;;;6.70;100.00
63715;BME280;49858;48.956;9.076;2022-11-20T00:40:21;98286.44;;;6.96;100.00
63715;BME280;49858;48.956;9.076;2022-11-20T00:42:49;98280.16;;;6.46;100.00
63715;BME280;49858;48.956;9.076;2022-11-20T00:45:16;98282.81;;;6.67;100.00
63715;BME280;49858;48.956;9.076;2022-11-20T00:47:44;98283.50;;;6.88;100.00
63715;BME280;49858;48.956;9.076;2022-11-20T00:50:12;98282.91;;;6.58;100.00
63715;BME280;49858;48.956;9.076;2022-11-20T00:52:40;98285.31;;;6.60;100.00
63715;BME280;49858;48.956;9.076;2022-11-20T00:55:09;98291.16;;;5.50;100.00
63715;BME280;49858;48.956;9.076;2022-11-20T00:57:37;98295.28;;;5.98;100.00
63715;BME280;49858;48.956;9.076;2022-11-20T01:00:06;98291.69;;;5.85;100.00
63715;BME280;49858;48.956;9.076;2022-11-20T01:02:34;98292.63;;;6.23;100.00
63715;BME280;49858;48.956;9.076;2022-11-20T01:05:02;98286.00;;;5.90;100.00
63715;BME280;49858;48.956;9.076;2022-11-20T01:07:30;98289.38;;;5.54;100.00
63715;BME280;49858;48.956;9.076;2022-11-20T01:09:58;98302.53;;;5.73;100.00
63715;BME280;49858;48.956;9.076;2022-11-20T01:12:27;98296.88;;;5.99;100.00
63715;BME280;49858;48.956;9.076;2022-11-20T01:14:54;98291.81;;;6.80;100.00
63715;BME280;49858;48.956;9.076;2022-11-20T01:17:22;98288.84;;;6.15;100.00
63715;BME280;49858;48.956;9.076;2022-11-20T01:19:50;98296.28;;;5.73;100.00
63715;BME280;49858;48.956;9.076;2022-11-20T01:22:18;98295.56;;;5.84;100.00
63715;BME280;49858;48.956;9.076;2022-11-20T01:24:45;98299.16;;;5.34;100.00
63715;BME280;49858;48.956;9.076;2022-11-20T01:27:13;98303.31;;;5.11;100.00
63715;BME280;49858;48.956;9.076;2022-11-20T01:29:42;98313.13;;;5.96;100.00
63715;BME280;49858;48.956;9.076;2022-11-20T01:32:10;98312.41;;;6.07;100.00
63715;BME280;49858;48.956;9.076;2022-11-20T01:34:38;98306.59;;;5.67;100.00
63715;BME280;49858;48.956;9.076;2022-11-20T01:37:05;98302.41;;;5.28;100.00
63715;BME280;49858;48.956;9.076;2022-11-20T01:39:33;98302.91;;;5.51;100.00
63715;BME280;49858;48.956;9.076;2022-11-20T01:42:01;98303.94;;;6.00;100.00
63715;BME280;49858;48.956;9.076;2022-11-20T01:44:52;98299.13;;;6.30;100.00
63715;BME280;49858;48.956;9.076;2022-11-20T01:47:27;98295.00;;;5.91;100.00
63715;BME280;49858;48.956;9.076;2022-11-20T01:50:01;98298.19;;;6.59;100.00
63715;BME280;49858;48.956;9.076;2022-11-20T01:52:33;98292.84;;;6.18;100.00
63715;BME280;49858;48.956;9.076;2022-11-20T01:55:05;98297.28;;;6.80;100.00
63715;BME280;49858;48.956;9.076;2022-11-20T01:57:35;98288.94;;;6.52;100.00
63715;BME280;49858;48.956;9.076;2022-11-20T02:00:07;98290.97;;;6.43;100.00
63715;BME280;49858;48.956;9.076;2022-11-20T02:02:41;98285.19;;;6.11;100.00
63715;BME280;49858;48.956;9.076;2022-11-20T02:05:16;98289.38;;;5.75;100.00
63715;BME280;49858;48.956;9.076;2022-11-20T02:07:46;98281.38;;;5.70;100.00
63715;BME280;49858;48.956;9.076;2022-11-20T02:10:15;98285.38;;;5.73;100.00
63715;BME280;49858;48.956;9.076;2022-11-20T02:12:43;98274.94;;;5.75;100.00
63715;BME280;49858;48.956;9.076;2022-11-20T02:15:29;98285.38;;;5.94;100.00
63715;BME280;49858;48.956;9.076;2022-11-20T02:17:57;98288.34;;;6.34;100.00
63715;BME280;49858;48.956;9.076;2022-11-20T02:20:25;98283.44;;;5.94;100.00
63715;BME280;49858;48.956;9.076;2022-11-20T02:22:56;98286.59;;;6.17;100.00
63715;BME280;49858;48.956;9.076;2022-11-20T02:25:27;98283.84;;;5.84;100.00
63715;BME280;49858;48.956;9.076;2022-11-20T02:27:56;98288.69;;;5.99;100.00
63715;BME280;49858;48.956;9.076;2022-11-20T02:30:24;98282.13;;;5.79;100.00
63715;BME280;49858;48.956;9.076;2022-11-20T02:32:52;98284.03;;;6.00;100.00
63715;BME280;49858;48.956;9.076;2022-11-20T02:35:41;98282.91;;;6.46;100.00
63715;BME280;49858;48.956;9.076;2022-11-20T02:38:09;98284.41;;;7.17;100.00
63715;BME280;49858;48.956;9.076;2022-11-20T02:40:39;98283.13;;;7.27;100.00
63715;BME280;49858;48.956;9.076;2022-11-20T02:43:07;98290.09;;;7.00;100.00
63715;BME280;49858;48.956;9.076;2022-11-20T02:45:36;98282.25;;;6.74;100.00
63715;BME280;49858;48.956;9.076;2022-11-20T02:48:06;98277.34;;;6.67;100.00
63715;BME280;49858;48.956;9.076;2022-11-20T02:50:36;98279.16;;;6.51;100.00
63715;BME280;49858;48.956;9.076;2022-11-20T02:53:05;98276.00;;;6.73;100.00
63715;BME280;49858;48.956;9.076;2022-11-20T02:55:33;98275.28;;;7.01;100.00
63715;BME280;49858;48.956;9.076;2022-11-20T02:58:02;98279.06;;;6.84;100.00
63715;BME280;49858;48.956;9.076;2022-11-20T03:00:30;98279.97;;;6.63;100.00
63715;BME280;49858;48.956;9.076;2022-11-20T03:02:58;98272.09;;;6.50;100.00
63715;BME280;49858;48.956;9.076;2022-11-20T03:05:26;98281.59;;;6.19;100.00
63715;BME280;49858;48.956;9.076;2022-11-20T03:07:53;98278.94;;;6.10;100.00
63715;BME280;49858;48.956;9.076;2022-11-20T03:10:21;98279.75;;;6.93;100.00
63715;BME280;49858;48.956;9.076;2022-11-20T03:12:52;98280.97;;;6.96;100.00
63715;BME280;49858;48.956;9.076;2022-11-20T03:15:22;98272.91;;;6.99;100.00
63715;BME280;49858;48.956;9.076;2022-11-20T03:17:53;98273.81;;;7.03;100.00
63715;BME280;49858;48.956;9.076;2022-11-20T03:20:22;98271.66;;;6.97;100.00
63715;BME280;49858;48.956;9.076;2022-11-20T03:22:50;98260.22;;;7.19;100.00
63715;BME280;49858;48.956;9.076;2022-11-20T03:25:17;98260.38;;;6.61;100.00
63715;BME280;49858;48.956;9.076;2022-11-20T03:27:45;98262.50;;;7.05;100.00
63715;BME280;49858;48.956;9.076;2022-11-20T03:30:13;98257.06;;;6.93;100.00
63715;BME280;49858;48.956;9.076;2022-11-20T03:32:43;98255.69;;;6.99;100.00
63715;BME280;49858;48.956;9.076;2022-11-20T03:35:11;98252.06;;;6.82;100.00
63715;BME280;49858;48.956;9.076;2022-11-20T03:37:39;98257.06;;;6.80;100.00
63715;BME280;49858;48.956;9.076;2022-11-20T03:40:07;98260.94;;;6.91;100.00
63715;BME280;49858;48.956;9.076;2022-11-20T03:42:35;98254.88;;;6.49;100.00
63715;BME280;49858;48.956;9.076;2022-11-20T03:45:12;98255.06;;;6.20;100.00
63715;BME280;49858;48.956;9.076;2022-11-20T03:47:41;98256.84;;;6.03;100.00
63715;BME280;49858;48.956;9.076;2022-11-20T03:50:12;98256.84;;;6.03;100.00
63715;BME280;49858;48.956;9.076;2022-11-20T03:52:40;98257.03;;;6.44;100.00
63715;BME280;49858;48.956;9.076;2022-11-20T03:55:08;98248.28;;;6.26;100.00
63715;BME280;49858;48.956;9.076;2022-11-20T03:57:36;98250.56;;;6.36;100.00
63715;BME280;49858;48.956;9.076;2022-11-20T04:00:05;98254.84;;;6.25;100.00
63715;BME280;49858;48.956;9.076;2022-11-20T04:02:33;98260.66;;;6.23;100.00
63715;BME280;49858;48.956;9.076;2022-11-20T04:05:00;98262.31;;;6.85;100.00
63715;BME280;49858;48.956;9.076;2022-11-20T04:07:30;98253.56;;;6.92;100.00
63715;BME280;49858;48.956;9.076;2022-11-20T04:09:57;98253.06;;;5.96;100.00
63715;BME280;49858;48.956;9.076;2022-11-20T04:12:25;98258.56;;;5.54;100.00
63715;BME280;49858;48.956;9.076;2022-11-20T04:14:53;98262.03;;;6.17;100.00
63715;BME280;49858;48.956;9.076;2022-11-20T04:17:21;98258.03;;;5.39;100.00
63715;BME280;49858;48.956;9.076;2022-11-20T04:19:49;98255.38;;;5.31;100.00
63715;BME280;49858;48.956;9.076;2022-11-20T04:22:16;98259.66;;;5.74;100.00
63715;BME280;49858;48.956;9.076;2022-11-20T04:24:45;98264.09;;;5.66;100.00
63715;BME280;49858;48.956;9.076;2022-11-20T04:27:13;98260.81;;;5.31;100.00
63715;BME280;49858;48.956;9.076;2022-11-20T04:29:41;98254.09;;;5.07;100.00
63715;BME280;49858;48.956;9.076;2022-11-20T04:32:09;98260.06;;;5.01;100.00
63715;BME280;49858;48.956;9.076;2022-11-20T04:34:37;98261.81;;;5.05;100.00
63715;BME280;49858;48.956;9.076;2022-11-20T04:37:04;98251.00;;;5.18;100.00
63715;BME280;49858;48.956;9.076;2022-11-20T04:39:32;98257.34;;;5.22;100.00
63715;BME280;49858;48.956;9.076;2022-11-20T04:42:01;98255.00;;;5.41;100.00
63715;BME280;49858;48.956;9.076;2022-11-20T04:44:49;98250.69;;;5.31;100.00
63715;BME280;49858;48.956;9.076;2022-11-20T04:47:16;98262.00;;;5.21;100.00
63715;BME280;49858;48.956;9.076;2022-11-20T04:49:44;98255.22;;;5.69;100.00
63715;BME280;49858;48.956;9.076;2022-11-20T04:52:12;98247.13;;;5.60;100.00
63715;BME280;49858;48.956;9.076;2022-11-20T04:54:40;98253.41;;;5.73;100.00
63715;BME280;49858;48.956;9.076;2022-11-20T04:57:09;98246.75;;;5.83;100.00
63715;BME280;49858;48.956;9.076;2022-11-20T04:59:40;98244.75;;;5.92;100.00
63715;BME280;49858;48.956;9.076;2022-11-20T05:02:09;98250.81;;;5.98;100.00
63715;BME280;49858;48.956;9.076;2022-11-20T05:04:37;98235.81;;;6.16;100.00
63715;BME280;49858;48.956;9.076;2022-11-20T05:07:04;98235.47;;;6.05;100.00
63715;BME280;49858;48.956;9.076;2022-11-20T05:09:32;98234.38;;;6.19;100.00
63715;BME280;49858;48.956;9.076;2022-11-20T05:12:00;98233.31;;;6.11;100.00
63715;BME280;49858;48.956;9.076;2022-11-20T05:14:29;98239.38;;;6.17;100.00
63715;BME280;49858;48.956;9.076;2022-11-20T05:16:57;98240.72;;;6.10;100.00
63715;BME280;49858;48.956;9.076;2022-11-20T05:19:25;98241.41;;;6.20;100.00
63715;BME280;49858;48.956;9.076;2022-11-20T05:21:53;98242.44;;;6.15;100.00
63715;BME280;49858;48.956;9.076;2022-11-20T05:24:20;98239.94;;;6.22;100.00
63715;BME280;49858;48.956;9.076;2022-11-20T05:26:48;98236.09;;;6.35;100.00
63715;BME280;49858;48.956;9.076;2022-11-20T05:29:16;98245.19;;;6.39;100.00
63715;BME280;49858;48.956;9.076;2022-11-20T05:31:46;98242.69;;;6.22;100.00
63715;BME280;49858;48.956;9.076;2022-11-20T05:34:14;98245.31;;;6.31;100.00
63715;BME280;49858;48.956;9.076;2022-11-20T05:36:41;98241.88;;;6.22;100.00
63715;BME280;49858;48.956;9.076;2022-11-20T05:39:09;98248.38;;;6.17;100.00
63715;BME280;49858;48.956;9.076;2022-11-20T05:41:37;98245.38;;;7.32;100.00
63715;BME280;49858;48.956;9.076;2022-11-20T05:44:05;98234.75;;;7.43;100.00
63715;BME280;49858;48.956;9.076;2022-11-20T05:46:32;98233.88;;;7.67;100.00
63715;BME280;49858;48.956;9.076;2022-11-20T05:49:01;98220.50;;;7.93;100.00
63715;BME280;49858;48.956;9.076;2022-11-20T05:51:29;98232.78;;;7.15;100.00
63715;BME280;49858;48.956;9.076;2022-11-20T05:53:57;98224.03;;;7.38;100.00
63715;BME280;49858;48.956;9.076;2022-11-20T05:56:25;98227.53;;;7.51;100.00
63715;BME280;49858;48.956;9.076;2022-11-20T05:58:53;98226.13;;;7.29;100.00
63715;BME280;49858;48.956;9.076;2022-11-20T06:01:22;98226.81;;;7.26;100.00
63715;BME280;49858;48.956;9.076;2022-11-20T06:03:50;98226.97;;;7.05;100.00
63715;BME280;49858;48.956;9.076;2022-11-20T06:06:20;98227.69;;;7.42;100.00
63715;BME280;49858;48.956;9.076;2022-11-20T06:08:50;98230.63;;;7.49;100.00
63715;BME280;49858;48.956;9.076;2022-11-20T06:11:18;98225.41;;;6.79;100.00
63715;BME280;49858;48.956;9.076;2022-11-20T06:13:47;98229.38;;;7.06;100.00
63715;BME280;49858;48.956;9.076;2022-11-20T06:16:17;98229.28;;;6.66;100.00
63715;BME280;49858;48.956;9.076;2022-11-20T06:18:45;98231.13;;;6.50;100.00
63715;BME280;49858;48.956;9.076;2022-11-20T06:21:15;98230.41;;;6.28;100.00
63715;BME280;49858;48.956;9.076;2022-11-20T06:23:46;98229.25;;;6.17;100.00
63715;BME280;49858;48.956;9.076;2022-11-20T06:26:16;98231.53;;;6.27;100.00
63715;BME280;49858;48.956;9.076;2022-11-20T06:28:44;98231.28;;;6.20;100.00
63715;BME280;49858;48.956;9.076;2022-11-20T06:31:14;98234.97;;;6.61;100.00
63715;BME280;49858;48.956;9.076;2022-11-20T06:33:42;98236.09;;;6.35;100.00
63715;BME280;49858;48.956;9.076;2022-11-20T06:36:12;98231.34;;;6.69;100.00
63715;BME280;49858;48.956;9.076;2022-11-20T06:38:40;98238.97;;;6.51;100.00
63715;BME280;49858;48.956;9.076;2022-11-20T06:41:11;98236.81;;;6.69;100.00
63715;BME280;49858;48.956;9.076;2022-11-20T06:43:40;98225.88;;;6.45;100.00
63715;BME280;49858;48.956;9.076;2022-11-20T06:46:09;98233.94;;;6.41;100.00
63715;BME280;49858;48.956;9.076;2022-11-20T06:48:37;98235.22;;;6.68;100.00
63715;BME280;49858;48.956;9.076;2022-11-20T06:51:05;98237.66;;;7.22;100.00
63715;BME280;49858;48.956;9.076;2022-11-20T06:53:34;98227.09;;;7.49;100.00
63715;BME280;49858;48.956;9.076;2022-11-20T06:56:03;98223.00;;;7.42;100.00
63715;BME280;49858;48.956;9.076;2022-11-20T06:58:33;98220.00;;;7.60;100.00
63715;BME280;49858;48.956;9.076;2022-11-20T07:01:02;98231.41;;;7.09;100.00
63715;BME280;49858;48.956;9.076;2022-11-20T07:03:31;98241.34;;;6.65;100.00
63715;BME280;49858;48.956;9.076;2022-11-20T07:06:00;98248.75;;;6.89;100.00
63715;BME280;49858;48.956;9.076;2022-11-20T07:08:28;98243.56;;;7.36;100.00
63715;BME280;49858;48.956;9.076;2022-11-20T07:10:57;98245.50;;;7.36;100.00
63715;BME280;49858;48.956;9.076;2022-11-20T07:13:25;98243.69;;;7.68;100.00
63715;BME280;49858;48.956;9.076;2022-11-20T07:15:54;98249.94;;;7.28;100.00
63715;BME280;49858;48.956;9.076;2022-11-20T07:18:22;98254.53;;;6.38;100.00
63715;BME280;49858;48.956;9.076;2022-11-20T07:20:50;98263.16;;;6.28;100.00
63715;BME280;49858;48.956;9.076;2022-11-20T07:23:18;98273.03;;;6.08;100.00
63715;BME280;49858;48.956;9.076;2022-11-20T07:25:45;98272.97;;;5.96;100.00
63715;BME280;49858;48.956;9.076;2022-11-20T07:28:13;98276.69;;;6.12;100.00
63715;BME280;49858;48.956;9.076;2022-11-20T07:30:41;98269.41;;;6.17;100.00
63715;BME280;49858;48.956;9.076;2022-11-20T07:33:10;98274.06;;;6.16;100.00
63715;BME280;49858;48.956;9.076;2022-11-20T07:35:38;98270.75;;;6.10;100.00
63715;BME280;49858;48.956;9.076;2022-11-20T07:38:08;98276.56;;;6.09;100.00
63715;BME280;49858;48.956;9.076;2022-11-20T07:40:39;98278.63;;;6.12;100.00
63715;BME280;49858;48.956;9.076;2022-11-20T07:43:07;98280.78;;;6.19;100.00
63715;BME280;49858;48.956;9.076;2022-11-20T07:45:35;98280.69;;;6.27;100.00
63715;BME280;49858;48.956;9.076;2022-11-20T07:48:03;98268.41;;;6.33;100.00
63715;BME280;49858;48.956;9.076;2022-11-20T07:50:32;98269.09;;;6.30;100.00
63715;BME280;49858;48.956;9.076;2022-11-20T07:53:01;98269.56;;;6.32;100.00
63715;BME280;49858;48.956;9.076;2022-11-20T07:55:30;98270.47;;;6.36;100.00
63715;BME280;49858;48.956;9.076;2022-11-20T07:57:58;98269.91;;;6.43;100.00
63715;BME280;49858;48.956;9.076;2022-11-20T08:00:26;98270.84;;;6.47;100.00
63715;BME280;49858;48.956;9.076;2022-11-20T08:02:55;98272.31;;;6.57;100.00
63715;BME280;49858;48.956;9.076;2022-11-20T08:05:22;98274.59;;;6.55;100.00
63715;BME280;49858;48.956;9.076;2022-11-20T08:07:51;98266.84;;;6.57;100.00
63715;BME280;49858;48.956;9.076;2022-11-20T08:10:19;98277.78;;;6.57;100.00
63715;BME280;49858;48.956;9.076;2022-11-20T08:12:48;98273.00;;;6.54;100.00
63715;BME280;49858;48.956;9.076;2022-11-20T08:15:34;98274.38;;;6.60;100.00
63715;BME280;49858;48.956;9.076;2022-11-20T08:18:03;98275.06;;;6.69;100.00
63715;BME280;49858;48.956;9.076;2022-11-20T08:20:51;98282.47;;;6.56;100.00
63715;BME280;49858;48.956;9.076;2022-11-20T08:23:22;98288.72;;;6.45;100.00
63715;BME280;49858;48.956;9.076;2022-11-20T08:25:50;98280.97;;;6.47;100.00
63715;BME280;49858;48.956;9.076;2022-11-20T08:28:18;98284.72;;;6.42;100.00
63715;BME280;49858;48.956;9.076;2022-11-20T08:30:48;98303.91;;;6.21;100.00
63715;BME280;49858;48.956;9.076;2022-11-20T08:33:17;98297.63;;;6.21;100.00
63715;BME280;49858;48.956;9.076;2022-11-20T08:35:45;98298.44;;;6.21;100.00
63715;BME280;49858;48.956;9.076;2022-11-20T08:38:13;98307.88;;;6.24;100.00
63715;BME280;49858;48.956;9.076;2022-11-20T08:40:42;98304.78;;;6.13;100.00
63715;BME280;49858;48.956;9.076;2022-11-20T08:43:31;98313.09;;;6.50;100.00
63715;BME280;49858;48.956;9.076;2022-11-20T08:46:00;98306.91;;;6.53;100.00
63715;BME280;49858;48.956;9.076;2022-11-20T08:48:27;98311.19;;;6.29;100.00
63715;BME280;49858;48.956;9.076;2022-11-20T08:50:57;98314.50;;;6.35;100.00
63715;BME280;49858;48.956;9.076;2022-11-20T08:53:25;98326.63;;;6.58;100.00
63715;BME280;49858;48.956;9.076;2022-11-20T08:55:56;98322.50;;;6.40;100.00
63715;BME280;49858;48.956;9.076;2022-11-20T08:58:24;98326.34;;;6.39;100.00
63715;BME280;49858;48.956;9.076;2022-11-20T09:00:52;98325.47;;;6.47;100.00
63715;BME280;49858;48.956;9.076;2022-11-20T09:03:20;98324.91;;;6.42;100.00
63715;BME280;49858;48.956;9.076;2022-11-20T09:05:48;98322.13;;;6.29;100.00
63715;BME280;49858;48.956;9.076;2022-11-20T09:08:16;98323.84;;;6.34;100.00
63715;BME280;49858;48.956;9.076;2022-11-20T09:10:44;98325.72;;;6.54;100.00
63715;BME280;49858;48.956;9.076;2022-11-20T09:13:14;98333.00;;;6.50;100.00
63715;BME280;49858;48.956;9.076;2022-11-20T09:15:42;98328.66;;;6.49;100.00
63715;BME280;49858;48.956;9.076;2022-11-20T09:18:09;98330.81;;;6.44;100.00
63715;BME280;49858;48.956;9.076;2022-11-20T09:20:37;98329.94;;;6.52;100.00
63715;BME280;49858;48.956;9.076;2022-11-20T09:23:05;98328.56;;;6.58;100.00
63715;BME280;49858;48.956;9.076;2022-11-20T09:25:33;98333.72;;;6.72;100.00
63715;BME280;49858;48.956;9.076;2022-11-20T09:28:01;98330.41;;;6.66;100.00
63715;BME280;49858;48.956;9.076;2022-11-20T09:30:30;98330.88;;;6.68;100.00
63715;BME280;49858;48.956;9.076;2022-11-20T09:32:58;98344.16;;;6.57;100.00
63715;BME280;49858;48.956;9.076;2022-11-20T09:35:26;98340.53;;;6.65;100.00
63715;BME280;49858;48.956;9.076;2022-11-20T09:37:54;98336.78;;;6.70;100.00
63715;BME280;49858;48.956;9.076;2022-11-20T09:40:23;98345.47;;;6.84;100.00
63715;BME280;49858;48.956;9.076;2022-11-20T09:42:55;98334.72;;;6.67;100.00
63715;BME280;49858;48.956;9.076;2022-11-20T09:45:37;98333.03;;;6.75;100.00
63715;BME280;49858;48.956;9.076;2022-11-20T09:48:20;98337.84;;;6.78;100.00
63715;BME280;49858;48.956;9.076;2022-11-20T09:50:56;98338.38;;;6.71;100.00
63715;BME280;49858;48.956;9.076;2022-11-20T09:53:31;98356.16;;;6.65;100.00
63715;BME280;49858;48.956;9.076;2022-11-20T09:56:03;98335.66;;;6.71;100.00
63715;BME280;49858;48.956;9.076;2022-11-20T09:58:34;98338.16;;;6.76;100.00
63715;BME280;49858;48.956;9.076;2022-11-20T10:01:10;98338.50;;;6.75;100.00
63715;BME280;49858;48.956;9.076;2022-11-20T10:03:48;98353.19;;;6.70;100.00
63715;BME280;49858;48.956;9.076;2022-11-20T10:06:20;98353.75;;;6.63;100.00
63715;BME280;49858;48.956;9.076;2022-11-20T10:08:55;98358.13;;;6.44;100.00
63715;BME280;49858;48.956;9.076;2022-11-20T10:11:33;98354.59;;;6.43;100.00
63715;BME280;49858;48.956;9.076;2022-11-20T10:14:16;98342.44;;;6.40;100.00
63715;BME280;49858;48.956;9.076;2022-11-20T10:16:56;98341.50;;;6.36;100.00
63715;BME280;49858;48.956;9.076;2022-11-20T10:19:38;98345.53;;;6.51;100.00
63715;BME280;49858;48.956;9.076;2022-11-20T10:22:19;98343.22;;;6.41;100.00
63715;BME280;49858;48.956;9.076;2022-11-20T10:24:55;98347.28;;;6.35;100.00
63715;BME280;49858;48.956;9.076;2022-11-20T10:27:34;98334.94;;;6.50;100.00
63715;BME280;49858;48.956;9.076;2022-11-20T10:30:09;98349.50;;;6.54;100.00
63715;BME280;49858;48.956;9.076;2022-11-20T10:32:40;98345.41;;;6.48;100.00
63715;BME280;49858;48.956;9.076;2022-11-20T10:35:18;98348.81;;;6.45;100.00
63715;BME280;49858;48.956;9.076;2022-11-20T10:37:50;98342.66;;;6.48;100.00
63715;BME280;49858;48.956;9.076;2022-11-20T10:40:25;98335.56;;;6.34;100.00
63715;BME280;49858;48.956;9.076;2022-11-20T10:42:57;98339.91;;;6.35;100.00
63715;BME280;49858;48.956;9.076;2022-11-20T10:45:38;98335.97;;;6.45;100.00
63715;BME280;49858;48.956;9.076;2022-11-20T10:48:14;98337.09;;;6.56;100.00
63715;BME280;49858;48.956;9.076;2022-11-20T10:50:55;98345.66;;;6.55;100.00
63715;BME280;49858;48.956;9.076;2022-11-20T10:53:40;98344.97;;;6.58;100.00
63715;BME280;49858;48.956;9.076;2022-11-20T10:56:17;98324.59;;;6.55;100.00
63715;BME280;49858;48.956;9.076;2022-11-20T10:59:04;98340.09;;;6.63;100.00
63715;BME280;49858;48.956;9.076;2022-11-20T11:01:40;98349.06;;;6.52;100.00
63715;BME280;49858;48.956;9.076;2022-11-20T11:04:23;98342.78;;;6.51;100.00
63715;BME280;49858;48.956;9.076;2022-11-20T11:06:57;98337.56;;;6.58;100.00
63715;BME280;49858;48.956;9.076;2022-11-20T11:09:32;98341.53;;;6.49;100.00
63715;BME280;49858;48.956;9.076;2022-11-20T11:12:02;98335.31;;;6.60;100.00
63715;BME280;49858;48.956;9.076;2022-11-20T11:14:42;98327.56;;;6.75;100.00
63715;BME280;49858;48.956;9.076;2022-11-20T11:17:21;98320.41;;;6.70;100.00
63715;BME280;49858;48.956;9.076;2022-11-20T11:20:15;98323.94;;;6.83;100.00
63715;BME280;49858;48.956;9.076;2022-11-20T11:22:45;98309.13;;;7.08;100.00
63715;BME280;49858;48.956;9.076;2022-11-20T11:25:23;98299.06;;;7.37;100.00
63715;BME280;49858;48.956;9.076;2022-11-20T11:27:52;98306.47;;;7.49;100.00
63715;BME280;49858;48.956;9.076;2022-11-20T11:30:22;98280.81;;;8.09;100.00
63715;BME280;49858;48.956;9.076;2022-11-20T11:32:50;98284.34;;;8.10;100.00
63715;BME280;49858;48.956;9.076;2022-11-20T11:35:22;98271.63;;;8.45;100.00
63715;BME280;49858;48.956;9.076;2022-11-20T11:37:51;98278.09;;;8.25;100.00
63715;BME280;49858;48.956;9.076;2022-11-20T11:40:21;98263.31;;;8.58;100.00
63715;BME280;49858;48.956;9.076;2022-11-20T11:42:56;98254.56;;;8.52;100.00
63715;BME280;49858;48.956;9.076;2022-11-20T11:45:24;98267.25;;;8.29;100.00
63715;BME280;49858;48.956;9.076;2022-11-20T11:47:53;98252.03;;;8.31;100.00
63715;BME280;49858;48.956;9.076;2022-11-20T11:50:24;98247.44;;;8.35;100.00
63715;BME280;49858;48.956;9.076;2022-11-20T11:53:07;98245.41;;;8.32;100.00
63715;BME280;49858;48.956;9.076;2022-11-20T11:55:38;98240.19;;;8.27;100.00
63715;BME280;49858;48.956;9.076;2022-11-20T11:58:29;98244.56;;;8.00;100.00
63715;BME280;49858;48.956;9.076;2022-11-20T12:01:04;98238.78;;;7.89;100.00
63715;BME280;49858;48.956;9.076;2022-11-20T12:03:37;98244.63;;;7.88;100.00
63715;BME280;49858;48.956;9.076;2022-11-20T12:06:11;98250.06;;;8.16;100.00
63715;BME280;49858;48.956;9.076;2022-11-20T12:08:46;98246.31;;;8.36;100.00
63715;BME280;49858;48.956;9.076;2022-11-20T12:11:20;98241.28;;;8.54;100.00
63715;BME280;49858;48.956;9.076;2022-11-20T12:13:54;98238.28;;;8.75;100.00
63715;BME280;49858;48.956;9.076;2022-11-20T12:16:24;98230.84;;;8.60;100.00
63715;BME280;49858;48.956;9.076;2022-11-20T12:18:52;98231.34;;;8.97;100.00
63715;BME280;49858;48.956;9.076;2022-11-20T12:21:29;98229.50;;;8.85;100.00
63715;BME280;49858;48.956;9.076;2022-11-20T12:24:13;98229.34;;;8.62;100.00
63715;BME280;49858;48.956;9.076;2022-11-20T12:26:58;98221.50;;;9.31;100.00
63715;BME280;49858;48.956;9.076;2022-11-20T12:29:40;98212.16;;;9.52;100.00
63715;BME280;49858;48.956;9.076;2022-11-20T12:32:33;98222.38;;;9.55;100.00
63715;BME280;49858;48.956;9.076;2022-11-20T12:35:13;98205.94;;;9.74;100.00
63715;BME280;49858;48.956;9.076;2022-11-20T12:38:01;98206.56;;;9.87;100.00
63715;BME280;49858;48.956;9.076;2022-11-20T12:40:40;98211.19;;;10.25;100.00
63715;BME280;49858;48.956;9.076;2022-11-20T12:43:16;98210.16;;;10.56;100.00
63715;BME280;49858;48.956;9.076;2022-11-20T12:46:10;98219.00;;;9.61;100.00
63715;BME280;49858;48.956;9.076;2022-11-20T12:48:53;98203.13;;;9.51;100.00
63715;BME280;49858;48.956;9.076;2022-11-20T12:51:36;98201.88;;;9.68;100.00
63715;BME280;49858;48.956;9.076;2022-11-20T12:54:27;98202.56;;;9.07;100.00
63715;BME280;49858;48.956;9.076;2022-11-20T12:57:03;98219.84;;;8.91;100.00
63715;BME280;49858;48.956;9.076;2022-11-20T12:59:52;98214.13;;;9.16;100.00
63715;BME280;49858;48.956;9.076;2022-11-20T13:02:27;98220.31;;;8.46;100.00
63715;BME280;49858;48.956;9.076;2022-11-20T13:05:18;98216.66;;;8.26;100.00
63715;BME280;49858;48.956;9.076;2022-11-20T13:07:48;98219.00;;;8.40;100.00
63715;BME280;49858;48.956;9.076;2022-11-20T13:10:25;98216.56;;;8.07;100.00
63715;BME280;49858;48.956;9.076;2022-11-20T13:12:58;98222.75;;;8.04;100.00
63715;BME280;49858;48.956;9.076;2022-11-20T13:15:38;98207.34;;;7.99;100.00
63715;BME280;49858;48.956;9.076;2022-11-20T13:18:12;98212.25;;;8.06;100.00
63715;BME280;49858;48.956;9.076;2022-11-20T13:20:42;98209.03;;;8.04;100.00